Time;durP1;ratioP1;P1;durP2;ratioP2;P2;SDS_P1;SDS_P2;PMS_P1;PMS_P2;Temp;Humidity;BMP_temperature;BMP_pressure;BME280_temperature;BME280_humidity;BME280_pressure;Samples;Min_cycle;Max_cycle;Signal;HPM_P1;HPM_P2
2022/08/01 00:01:22;;;;;;;6.63;5.18;;;;;;;23.47;nan;-24468.34;5071416;28;20591;-66
2022/08/01 00:03:48;;;;;;;7.47;5.18;;;;;;;23.86;nan;-24479.13;5076469;28;20598;-65
2022/08/01 00:06:13;;;;;;;8.05;5.22;;;;;;;23.73;nan;-24475.66;5071350;28;20166;-66
2022/08/01 00:08:38;;;;;;;7.28;5.28;;;;;;;24.02;nan;-24483.53;5071820;28;20647;-65
2022/08/01 00:11:04;;;;;;;6.50;4.68;;;;;;;23.87;nan;-24479.25;5071702;28;20170;-63
2022/08/01 00:13:29;;;;;;;7.97;5.18;;;;;;;24.11;nan;-24485.88;5074854;28;20230;-66
2022/08/01 00:15:55;;;;;;;6.60;4.68;;;;;;;24.13;nan;-24486.56;5075064;28;20256;-67
2022/08/01 00:18:20;;;;;;;7.32;5.30;;;;;;;24.08;nan;-24485.19;5082701;28;20177;-66
2022/08/01 00:20:46;;;;;;;7.82;4.95;;;;;;;24.12;nan;-24486.16;5077836;28;20210;-66
2022/08/01 00:23:11;;;;;;;6.05;4.75;;;;;;;24.22;nan;-24488.78;5080240;28;20618;-66
2022/08/01 00:25:37;;;;;;;7.50;5.05;;;;;;;24.22;nan;-24488.91;5079540;28;20181;-65
2022/08/01 00:28:02;;;;;;;6.68;4.75;;;;;;;24.03;nan;-24483.66;5079970;28;20181;-66
2022/08/01 00:30:28;;;;;;;6.80;4.88;;;;;;;24.17;nan;-24487.69;5076152;28;20181;-66
2022/08/01 00:32:53;;;;;;;7.38;5.30;;;;;;;24.33;nan;-24491.94;5083879;28;20257;-65
2022/08/01 00:35:19;;;;;;;8.75;5.15;;;;;;;24.27;nan;-24490.28;5077404;28;20201;-66
2022/08/01 00:37:44;;;;;;;8.57;5.22;;;;;;;23.90;nan;-24480.22;5074972;28;20178;-66
2022/08/01 00:40:10;;;;;;;7.15;5.00;;;;;;;23.82;nan;-24478.00;5081763;28;20668;-66
2022/08/01 00:42:35;;;;;;;7.05;4.63;;;;;;;23.86;nan;-24478.97;5076836;28;20202;-67
2022/08/01 00:45:01;;;;;;;7.25;5.10;;;;;;;23.65;nan;-24473.31;5074527;28;20554;-65
2022/08/01 00:47:26;;;;;;;7.93;5.43;;;;;;;23.44;nan;-24467.66;5074880;28;20684;-65
2022/08/01 00:49:51;;;;;;;8.43;5.45;;;;;;;23.36;nan;-24465.44;5079945;28;20178;-65
2022/08/01 00:52:17;;;;;;;7.00;5.30;;;;;;;23.55;nan;-24470.69;5079715;28;20543;-66
2022/08/01 00:54:43;;;;;;;7.15;5.15;;;;;;;23.53;nan;-24470.00;5072441;28;20264;-66
2022/08/01 00:57:09;;;;;;;6.68;4.93;;;;;;;23.08;nan;-24457.72;5074351;28;20165;-65
2022/08/01 00:59:36;;;;;;;7.22;5.20;;;;;;;23.12;nan;-24458.81;5075884;28;20182;-66
2022/08/01 01:02:01;;;;;;;7.28;4.95;;;;;;;23.00;nan;-24455.50;5078716;28;20202;-66
2022/08/01 01:04:27;;;;;;;7.75;5.18;;;;;;;23.07;nan;-24457.44;5080886;28;20200;-64
2022/08/01 01:07:39;;;;;;;7.95;4.90;;;;;;;23.03;nan;-24456.34;5078535;28;20178;-64
2022/08/01 01:10:18;;;;;;;8.32;5.00;;;;;;;23.05;nan;-24457.03;5045614;28;20186;-64
2022/08/01 01:13:05;;;;;;;7.53;5.05;;;;;;;22.87;nan;-24452.19;5035752;28;20254;-65
2022/08/01 01:15:36;;;;;;;6.80;4.93;;;;;;;22.97;nan;-24454.81;5067808;28;20202;-64
2022/08/01 01:18:11;;;;;;;8.38;5.38;;;;;;;22.50;nan;-24441.81;5092156;28;20277;-64
2022/08/01 01:20:40;;;;;;;7.80;5.30;;;;;;;22.51;nan;-24442.09;5073457;28;20199;-64
2022/08/01 01:23:33;;;;;;;8.88;5.45;;;;;;;22.63;nan;-24445.53;5073827;28;20170;-64
2022/08/01 01:26:11;;;;;;;7.50;5.43;;;;;;;22.59;nan;-24444.44;5053516;28;20186;-65
2022/08/01 01:29:05;;;;;;;7.78;5.32;;;;;;;22.38;nan;-24438.75;5053320;28;20171;-65
2022/08/01 01:31:35;;;;;;;7.38;4.68;;;;;;;22.05;nan;-24429.50;5080192;28;20273;-65
2022/08/01 01:34:04;;;;;;;6.68;4.70;;;;;;;22.24;nan;-24434.75;5080328;28;20170;-65
2022/08/01 01:36:31;;;;;;;8.27;5.63;;;;;;;22.25;nan;-24435.16;5072891;28;20547;-64
2022/08/01 01:38:56;;;;;;;7.65;5.28;;;;;;;21.97;nan;-24427.41;5073771;28;20178;-65
2022/08/01 01:41:23;;;;;;;6.47;4.85;;;;;;;22.12;nan;-24431.44;5073787;28;20201;-64
2022/08/01 01:43:50;;;;;;;6.95;5.25;;;;;;;22.00;nan;-24428.38;5076181;28;20197;-65
2022/08/01 01:46:18;;;;;;;7.40;4.88;;;;;;;22.38;nan;-24438.63;5073695;28;20656;-65
2022/08/01 01:48:46;;;;;;;6.68;4.85;;;;;;;22.35;nan;-24437.78;5073786;28;20177;-65
2022/08/01 01:51:13;;;;;;;8.95;5.18;;;;;;;22.06;nan;-24429.78;5073560;28;20174;-64
2022/08/01 01:53:40;;;;;;;7.60;5.22;;;;;;;22.00;nan;-24428.38;5075950;28;20204;-65
2022/08/01 01:56:06;;;;;;;7.28;4.93;;;;;;;22.27;nan;-24435.59;5078492;28;20181;-64
2022/08/01 01:58:34;;;;;;;8.23;5.57;;;;;;;22.23;nan;-24434.63;5073997;28;20216;-65
2022/08/01 02:01:01;;;;;;;7.18;4.95;;;;;;;21.88;nan;-24424.91;5077673;28;20190;-65
2022/08/01 02:03:28;;;;;;;7.97;5.07;;;;;;;22.18;nan;-24433.09;5074975;28;20662;-65
2022/08/01 02:05:55;;;;;;;7.18;5.07;;;;;;;22.21;nan;-24433.94;5077413;28;20174;-65
2022/08/01 02:08:23;;;;;;;6.65;5.00;;;;;;;22.23;nan;-24434.47;5073998;28;20169;-65
2022/08/01 02:13:38;;;;;;;6.35;4.80;;;;;;;22.07;nan;-24430.03;5069357;28;20232;-65
2022/08/01 02:16:04;;;;;;;7.43;5.32;;;;;;;22.52;nan;-24442.50;5075130;28;20793;-65
2022/08/01 02:18:31;;;;;;;6.55;4.82;;;;;;;21.87;nan;-24424.78;5078228;28;20206;-65
2022/08/01 02:20:58;;;;;;;5.85;4.53;;;;;;;22.17;nan;-24432.81;5077826;28;20187;-65
2022/08/01 02:23:32;;;;;;;10.20;4.88;;;;;;;22.12;nan;-24431.56;5078094;28;20227;-64
2022/08/01 02:25:58;;;;;;;8.02;4.97;;;;;;;22.13;nan;-24431.84;5077231;28;20174;-65
2022/08/01 02:28:38;;;;;;;6.57;4.82;;;;;;;22.34;nan;-24437.66;5078233;28;20255;-64
2022/08/01 02:31:11;;;;;;;5.93;4.30;;;;;;;22.44;nan;-24440.28;5074650;28;20709;-64
2022/08/01 02:33:40;;;;;;;7.03;4.30;;;;;;;22.24;nan;-24434.75;5077510;28;20185;-64
2022/08/01 02:36:07;;;;;;;7.78;4.93;;;;;;;22.25;nan;-24435.16;5078548;28;20181;-64
2022/08/01 02:38:37;;;;;;;6.15;4.78;;;;;;;22.03;nan;-24429.22;5076696;28;20229;-64
2022/08/01 02:41:09;;;;;;;6.90;4.70;;;;;;;21.96;nan;-24427.16;5077101;28;20216;-65
2022/08/01 02:43:39;;;;;;;6.63;4.65;;;;;;;22.14;nan;-24432.00;5075131;28;20171;-66
2022/08/01 02:46:08;;;;;;;7.32;4.65;;;;;;;22.24;nan;-24434.75;5072407;28;20624;-65
2022/08/01 02:48:38;;;;;;;6.68;4.50;;;;;;;22.14;nan;-24432.13;5071849;28;20184;-65
2022/08/01 02:51:06;;;;;;;6.40;4.88;;;;;;;22.03;nan;-24429.09;5077429;28;20776;-65
2022/08/01 02:53:36;;;;;;;6.22;4.20;;;;;;;21.72;nan;-24420.63;5072771;28;20173;-65
2022/08/01 02:56:04;;;;;;;6.20;4.00;;;;;;;22.25;nan;-24435.16;5077048;28;20176;-64
2022/08/01 02:58:31;;;;;;;6.53;4.10;;;;;;;22.09;nan;-24430.75;5075671;28;20190;-65
2022/08/01 03:00:58;;;;;;;8.63;4.53;;;;;;;21.76;nan;-24421.75;5079284;28;20570;-64
2022/08/01 03:03:24;;;;;;;6.63;4.25;;;;;;;21.77;nan;-24422.00;5092555;28;20200;-64
2022/08/01 03:05:50;;;;;;;7.20;4.22;;;;;;;21.78;nan;-24422.28;5071823;28;20637;-65
2022/08/01 03:08:17;;;;;;;5.45;4.00;;;;;;;22.03;nan;-24429.22;5072762;28;20162;-65
2022/08/01 03:10:45;;;;;;;5.60;3.92;;;;;;;22.10;nan;-24430.88;5077182;28;20182;-65
2022/08/01 03:13:13;;;;;;;5.80;4.00;;;;;;;22.18;nan;-24433.09;5074250;28;20233;-65
2022/08/01 03:15:40;;;;;;;5.55;3.85;;;;;;;21.81;nan;-24422.97;5073574;28;20185;-64
2022/08/01 03:18:09;;;;;;;6.97;4.57;;;;;;;21.90;nan;-24425.63;5070334;28;20729;-66
2022/08/01 03:20:35;;;;;;;5.40;3.83;;;;;;;21.96;nan;-24427.28;5071546;28;20641;-64
2022/08/01 03:23:05;;;;;;;6.28;3.97;;;;;;;22.07;nan;-24430.03;5074156;28;20205;-65
2022/08/01 03:25:33;;;;;;;5.32;3.53;;;;;;;22.70;nan;-24447.50;5077091;28;20633;-65
2022/08/01 03:28:03;;;;;;;6.13;4.15;;;;;;;22.77;nan;-24449.28;5074134;28;20186;-64
2022/08/01 03:30:30;;;;;;;5.15;3.83;;;;;;;23.37;nan;-24465.72;5077393;28;20178;-66
2022/08/01 03:32:56;;;;;;;4.97;3.80;;;;;;;23.54;nan;-24470.41;5076980;28;20178;-65
2022/08/01 03:35:22;;;;;;;6.78;4.13;;;;;;;;;;5071409;28;20182;-65
2022/08/01 03:37:51;;;;;;;5.30;3.42;;;;;;;24.20;nan;-24488.50;5071659;28;20252;-65
2022/08/01 03:40:23;;;;;;;5.65;4.07;;;;;;;24.36;nan;-24492.78;5079577;28;20185;-65
2022/08/01 03:42:53;;;;;;;4.82;3.47;;;;;;;24.53;nan;-24497.31;5072177;28;20201;-65
2022/08/01 03:45:22;;;;;;;4.45;3.35;;;;;;;24.72;nan;-24502.41;5071775;28;20177;-65
2022/08/01 03:47:52;;;;;;;4.90;3.38;;;;;;;25.61;nan;-24526.66;5071521;28;20505;-65
2022/08/01 03:50:21;;;;;;;4.93;3.60;;;;;;;26.11;nan;-24540.25;5072008;28;20201;-66
2022/08/01 03:52:48;;;;;;;5.28;3.72;;;;;;;26.90;nan;-24561.81;5071695;28;20189;-65
2022/08/01 03:55:16;;;;;;;5.93;3.67;;;;;;;26.74;nan;-24557.56;5071524;28;20166;-66
2022/08/01 03:57:43;;;;;;;3.70;3.10;;;;;;;27.12;nan;-24567.72;5071635;28;20166;-66
2022/08/01 04:00:09;;;;;;;5.15;3.38;;;;;;;27.72;nan;-24583.91;5071258;28;20228;-66
2022/08/01 04:02:36;;;;;;;4.43;3.58;;;;;;;27.48;nan;-24577.44;5071155;28;20194;-65
2022/08/01 04:05:03;;;;;;;4.85;3.55;;;;;;;28.26;nan;-24598.53;5073549;28;20185;-66
2022/08/01 04:07:31;;;;;;;4.28;3.28;;;;;;;28.03;nan;-24592.53;5053949;28;20174;-66
2022/08/01 04:09:56;;;;;;;5.15;3.58;;;;;;;28.52;nan;-24605.66;5071218;28;20170;-65
2022/08/01 04:12:22;;;;;;;4.47;3.10;;;;;;;29.08;nan;-24620.69;5071134;28;20176;-65
2022/08/01 04:14:48;;;;;;;4.93;3.60;;;;;;;29.04;nan;-24619.59;5071190;28;20169;-66
2022/08/01 04:17:15;;;;;;;5.20;3.60;;;;;;;28.86;nan;-24614.81;5071583;28;20253;-65
2022/08/01 04:19:41;;;;;;;5.20;3.38;;;;;;;30.08;nan;-24647.72;5073555;28;20193;-65
2022/08/01 04:22:09;;;;;;;5.35;3.40;;;;;;;29.21;nan;-24624.25;5073500;28;20213;-65
2022/08/01 04:24:36;;;;;;;4.15;3.13;;;;;;;29.61;nan;-24635.19;5071321;28;20178;-65
2022/08/01 04:27:05;;;;;;;4.32;3.13;;;;;;;29.35;nan;-24628.06;5069811;28;20177;-65
2022/08/01 04:29:34;;;;;;;5.78;3.55;;;;;;;29.07;nan;-24620.44;5072931;28;20188;-65
2022/08/01 04:32:01;;;;;;;5.22;3.33;;;;;;;28.17;nan;-24596.09;5072990;28;20261;-65
2022/08/01 04:34:30;;;;;;;5.07;3.42;;;;;;;29.04;nan;-24619.75;5073172;28;20235;-65
2022/08/01 04:36:57;;;;;;;5.70;3.72;;;;;;;29.11;nan;-24621.66;5070737;28;20166;-66
2022/08/01 04:39:31;;;;;;;4.07;3.20;;;;;;;29.27;nan;-24626.03;5070473;28;20169;-65
2022/08/01 04:41:59;;;;;;;4.60;3.13;;;;;;;29.47;nan;-24631.34;5070695;28;20243;-66
2022/08/01 04:44:27;;;;;;;4.85;3.35;;;;;;;29.43;nan;-24630.25;5072907;28;20223;-65
2022/08/01 04:46:54;;;;;;;6.13;3.42;;;;;;;28.84;nan;-24614.41;5070797;28;20174;-66
2022/08/01 04:49:21;;;;;;;3.88;3.13;;;;;;;29.52;nan;-24632.59;5075746;28;20523;-65
2022/08/01 04:51:57;;;;;;;4.07;3.17;;;;;;;29.15;nan;-24622.59;5081117;28;20260;-65
2022/08/01 04:54:27;;;;;;;5.35;3.80;;;;;;;29.11;nan;-24621.66;5079285;28;20536;-65
2022/08/01 04:56:59;;;;;;;3.85;3.10;;;;;;;28.53;nan;-24606.06;5081896;28;20200;-65
2022/08/01 04:59:40;;;;;;;4.88;3.78;;;;;;;28.14;nan;-24595.41;5074983;28;20410;-66
2022/08/01 05:02:10;;;;;;;4.70;3.30;;;;;;;28.30;nan;-24599.78;5076928;28;20497;-63
2022/08/01 05:04:37;;;;;;;4.50;3.38;;;;;;;27.75;nan;-24584.84;5073836;28;20169;-63
2022/08/01 05:07:04;;;;;;;3.97;2.90;;;;;;;27.23;nan;-24570.88;5073718;28;20170;-63
2022/08/01 05:09:30;;;;;;;4.22;3.30;;;;;;;26.91;nan;-24562.09;5073850;28;20178;-63
2022/08/01 05:11:58;;;;;;;4.80;3.10;;;;;;;26.61;nan;-24553.84;5073795;28;20247;-63
2022/08/01 05:14:25;;;;;;;5.00;3.35;;;;;;;26.72;nan;-24556.88;5073906;28;20259;-63
2022/08/01 05:16:51;;;;;;;4.35;3.10;;;;;;;26.52;nan;-24551.38;5073754;28;20170;-63
2022/08/01 05:19:16;;;;;;;4.13;3.15;;;;;;;27.01;nan;-24564.69;5073581;28;20165;-63
2022/08/01 05:21:42;;;;;;;3.97;2.83;;;;;;;27.33;nan;-24573.34;5073332;28;20692;-62
2022/08/01 05:24:07;;;;;;;4.47;2.80;;;;;;;26.15;nan;-24541.34;5073843;28;20162;-61
2022/08/01 05:26:33;;;;;;;3.72;2.85;;;;;;;26.33;nan;-24546.31;5073363;28;20208;-62
2022/08/01 05:28:59;;;;;;;5.07;3.20;;;;;;;25.93;nan;-24535.59;5073196;28;20158;-63
2022/08/01 05:31:24;;;;;;;4.78;2.88;;;;;;;25.89;nan;-24534.34;5073650;28;20654;-62
2022/08/01 05:33:50;;;;;;;5.55;3.03;;;;;;;25.43;nan;-24521.97;5073406;28;20265;-62
2022/08/01 05:36:15;;;;;;;4.07;2.78;;;;;;;25.33;nan;-24519.09;5073494;28;20164;-63
2022/08/01 05:38:40;;;;;;;3.53;2.85;;;;;;;25.48;nan;-24523.34;5073526;28;20303;-63
2022/08/01 05:41:06;;;;;;;3.30;2.42;;;;;;;25.13;nan;-24513.56;5073611;28;20240;-63
2022/08/01 05:43:31;;;;;;;2.92;2.22;;;;;;;24.95;nan;-24508.75;5077256;28;20197;-63
2022/08/01 05:45:58;;;;;;;4.30;2.70;;;;;;;25.49;nan;-24523.47;5073370;28;20174;-63
2022/08/01 05:48:24;;;;;;;4.13;2.88;;;;;;;25.49;nan;-24523.47;5075508;28;20197;-63
2022/08/01 05:50:50;;;;;;;3.80;2.50;;;;;;;25.14;nan;-24513.84;5073137;28;20628;-63
2022/08/01 05:53:15;;;;;;;3.60;2.63;;;;;;;25.33;nan;-24519.22;5073258;28;20166;-63
2022/08/01 05:55:41;;;;;;;3.83;2.20;;;;;;;25.39;nan;-24520.88;5075965;28;20174;-63
2022/08/01 05:58:06;;;;;;;2.78;2.25;;;;;;;25.28;nan;-24517.72;5073066;28;20205;-63
2022/08/01 06:00:32;;;;;;;4.13;2.60;;;;;;;25.39;nan;-24520.72;5072607;28;20217;-64
2022/08/01 06:02:57;;;;;;;2.80;2.28;;;;;;;25.56;nan;-24525.41;5072920;28;20205;-64
2022/08/01 06:05:23;;;;;;;3.05;2.20;;;;;;;25.25;nan;-24517.00;5072936;28;20614;-63
2022/08/01 06:07:48;;;;;;;3.38;2.35;;;;;;;25.79;nan;-24531.75;5073136;28;20193;-63
2022/08/01 06:10:14;;;;;;;2.53;1.90;;;;;;;25.50;nan;-24523.91;5072289;28;20158;-64
2022/08/01 06:12:39;;;;;;;3.42;2.20;;;;;;;25.74;nan;-24530.38;5071070;28;20222;-64
2022/08/01 06:15:05;;;;;;;3.22;2.30;;;;;;;25.92;nan;-24535.31;5073126;28;20162;-62
2022/08/01 06:17:31;;;;;;;3.97;1.95;;;;;;;25.76;nan;-24530.78;5072917;28;20189;-62
2022/08/01 06:19:56;;;;;;;2.97;2.20;;;;;;;26.04;nan;-24538.47;5072486;28;20249;-62
2022/08/01 06:22:22;;;;;;;2.92;2.00;;;;;;;26.10;nan;-24539.97;5072636;28;20584;-62
2022/08/01 06:24:47;;;;;;;3.58;2.13;;;;;;;26.16;nan;-24541.63;5072628;28;20586;-64
2022/08/01 06:27:12;;;;;;;3.10;2.13;;;;;;;26.25;nan;-24544.13;5072422;28;20598;-64
2022/08/01 06:29:38;;;;;;;2.72;2.10;;;;;;;26.36;nan;-24547.28;5072548;28;20166;-62
2022/08/01 06:32:04;;;;;;;4.03;2.45;;;;;;;26.43;nan;-24548.91;5071916;28;20201;-62
2022/08/01 06:34:29;;;;;;;3.65;2.17;;;;;;;26.19;nan;-24542.59;5072367;28;20290;-62
2022/08/01 06:36:54;;;;;;;3.03;2.10;;;;;;;26.41;nan;-24548.38;5072433;28;20242;-62
2022/08/01 06:39:20;;;;;;;2.35;1.95;;;;;;;26.47;nan;-24550.00;5072673;28;20170;-59
2022/08/01 06:41:48;;;;;;;3.05;2.30;;;;;;;26.28;nan;-24545.06;5072332;28;20529;-62
2022/08/01 06:44:13;;;;;;;3.38;2.33;;;;;;;26.77;nan;-24558.25;5072132;28;20190;-60
2022/08/01 06:46:38;;;;;;;2.72;1.90;;;;;;;26.95;nan;-24563.19;5072286;28;20227;-60
2022/08/01 06:49:04;;;;;;;3.00;2.17;;;;;;;26.99;nan;-24564.16;5072128;28;20200;-59
2022/08/01 06:51:29;;;;;;;2.10;1.80;;;;;;;27.02;nan;-24564.97;5072091;28;20174;-61
2022/08/01 06:53:55;;;;;;;2.55;2.20;;;;;;;27.14;nan;-24568.28;5071711;28;20170;-60
2022/08/01 06:56:20;;;;;;;2.40;1.88;;;;;;;26.93;nan;-24562.50;5071761;28;20170;-60
2022/08/01 06:58:46;;;;;;;2.58;2.17;;;;;;;26.85;nan;-24560.44;5071447;28;20240;-59
2022/08/01 07:01:11;;;;;;;2.55;2.10;;;;;;;26.57;nan;-24552.91;5071705;28;20194;-58
2022/08/01 07:03:38;;;;;;;2.67;2.00;;;;;;;26.97;nan;-24563.59;5071968;28;20634;-60
2022/08/01 07:06:04;;;;;;;2.95;2.10;;;;;;;27.17;nan;-24569.09;5071972;28;20170;-59
2022/08/01 07:08:29;;;;;;;2.05;1.85;;;;;;;26.72;nan;-24556.88;5071411;28;20185;-59
2022/08/01 07:10:58;;;;;;;4.75;2.58;;;;;;;27.13;nan;-24568.13;5071796;28;20541;-60
2022/08/01 07:13:25;;;;;;;2.72;2.20;;;;;;;26.99;nan;-24564.28;5071759;28;20312;-60
2022/08/01 07:15:51;;;;;;;2.63;2.13;;;;;;;27.29;nan;-24572.38;5072033;28;20174;-61
2022/08/01 07:18:17;;;;;;;2.47;2.08;;;;;;;27.28;nan;-24572.09;5071727;28;20253;-60
2022/08/01 07:20:43;;;;;;;3.03;2.05;;;;;;;27.23;nan;-24570.75;5071826;28;20258;-60
2022/08/01 07:23:08;;;;;;;2.75;1.98;;;;;;;27.52;nan;-24578.56;5069872;28;20671;-60
2022/08/01 07:25:34;;;;;;;3.30;2.25;;;;;;;27.64;nan;-24581.97;5071557;28;20162;-61
2022/08/01 07:27:59;;;;;;;3.22;2.22;;;;;;;27.61;nan;-24581.16;5071484;28;20261;-61
2022/08/01 07:30:25;;;;;;;2.50;2.00;;;;;;;27.41;nan;-24575.53;5070766;28;20162;-60
2022/08/01 07:32:50;;;;;;;7.60;2.47;;;;;;;27.76;nan;-24585.13;5071229;28;20584;-60
2022/08/01 07:35:16;;;;;;;2.08;1.88;;;;;;;27.74;nan;-24584.59;5069968;28;20193;-58
2022/08/01 07:37:41;;;;;;;2.83;2.22;;;;;;;27.48;nan;-24577.44;5071343;28;20180;-60
2022/08/01 07:40:07;;;;;;;2.92;2.05;;;;;;;27.75;nan;-24584.84;5069523;28;20209;-59
2022/08/01 07:42:33;;;;;;;4.97;2.60;;;;;;;28.03;nan;-24592.38;5071068;28;20182;-60
2022/08/01 07:44:58;;;;;;;3.65;1.90;;;;;;;28.04;nan;-24592.78;5071236;28;20288;-61
2022/08/01 07:47:27;;;;;;;2.63;2.05;;;;;;;27.70;nan;-24583.47;5071149;28;20166;-59
2022/08/01 07:49:59;;;;;;;2.92;2.20;;;;;;;27.92;nan;-24589.50;5071282;28;20253;-60
2022/08/01 07:52:24;;;;;;;2.67;2.03;;;;;;;28.00;nan;-24591.69;5071409;28;20169;-60
2022/08/01 07:54:49;;;;;;;2.25;2.00;;;;;;;27.76;nan;-24585.13;5071301;28;20210;-60
2022/08/01 07:57:15;;;;;;;3.10;2.17;;;;;;;27.81;nan;-24586.34;5071411;28;20697;-60
2022/08/01 07:59:40;;;;;;;2.10;1.70;;;;;;;27.96;nan;-24590.47;5071135;28;20261;-61
2022/08/01 08:02:06;;;;;;;3.50;2.08;;;;;;;27.74;nan;-24584.59;5071171;28;20182;-61
2022/08/01 08:04:31;;;;;;;8.68;2.50;;;;;;;27.96;nan;-24590.59;5070834;28;20272;-59
2022/08/01 08:06:56;;;;;;;2.55;2.08;;;;;;;27.78;nan;-24585.53;5070564;28;20178;-60
2022/08/01 08:09:22;;;;;;;2.72;2.38;;;;;;;27.98;nan;-24591.16;5070076;28;20185;-61
2022/08/01 08:11:48;;;;;;;2.35;1.80;;;;;;;28.19;nan;-24596.63;5071047;28;20212;-61
2022/08/01 08:14:15;;;;;;;2.42;1.85;;;;;;;28.26;nan;-24598.69;5069963;28;20599;-61
2022/08/01 08:16:41;;;;;;;3.00;1.90;;;;;;;28.32;nan;-24600.19;5071771;28;20178;-60
2022/08/01 08:19:06;;;;;;;2.55;1.80;;;;;;;28.13;nan;-24595.13;5071507;28;20174;-60
2022/08/01 08:21:32;;;;;;;3.65;2.67;;;;;;;28.36;nan;-24601.28;5073864;28;20198;-65
2022/08/01 08:26:41;;;;;;;2.55;2.00;;;;;;;28.32;nan;-24600.19;5070562;28;20173;-62
2022/08/01 08:29:07;;;;;;;3.13;2.15;;;;;;;28.13;nan;-24595.00;5070914;28;20166;-63
2022/08/01 08:31:32;;;;;;;2.40;1.95;;;;;;;28.37;nan;-24601.56;5070501;28;20177;-63
2022/08/01 08:33:58;;;;;;;2.00;1.80;;;;;;;28.17;nan;-24596.22;5071008;28;20237;-63
2022/08/01 08:36:23;;;;;;;2.58;1.80;;;;;;;28.28;nan;-24599.09;5074571;28;20197;-63
2022/08/01 08:38:49;;;;;;;1.85;1.67;;;;;;;28.53;nan;-24606.06;5074830;28;20170;-65
2022/08/01 08:41:15;;;;;;;2.30;2.08;;;;;;;28.75;nan;-24611.97;5074416;28;20286;-65
2022/08/01 08:43:40;;;;;;;2.10;1.90;;;;;;;28.39;nan;-24602.25;5075484;28;20166;-64
2022/08/01 08:46:08;;;;;;;1.90;1.70;;;;;;;28.20;nan;-24597.03;5074903;28;20518;-64
2022/08/01 08:48:34;;;;;;;2.80;2.00;;;;;;;28.43;nan;-24603.34;5074887;28;20164;-63
2022/08/01 08:51:01;;;;;;;2.60;2.10;;;;;;;28.42;nan;-24603.06;5074781;28;20257;-65
2022/08/01 08:53:27;;;;;;;2.33;2.00;;;;;;;28.29;nan;-24599.38;5074525;28;20193;-63
2022/08/01 08:55:54;;;;;;;3.50;2.20;;;;;;;28.61;nan;-24608.13;5074313;28;20247;-64
2022/08/01 08:58:20;;;;;;;2.55;2.00;;;;;;;27.43;nan;-24576.06;5074614;28;20249;-63
2022/08/01 09:00:47;;;;;;;2.75;1.90;;;;;;;28.24;nan;-24598.00;5074921;28;20170;-64
2022/08/01 09:03:12;;;;;;;2.83;2.17;;;;;;;28.49;nan;-24604.84;5074190;28;20204;-64
2022/08/01 09:05:38;;;;;;;4.22;2.33;;;;;;;28.82;nan;-24613.88;5074846;28;20166;-64
2022/08/01 09:08:07;;;;;;;2.47;1.70;;;;;;;29.02;nan;-24619.06;5074412;28;20184;-65
2022/08/01 09:10:33;;;;;;;2.42;1.95;;;;;;;28.91;nan;-24616.31;5077481;28;20177;-63
2022/08/01 09:13:20;;;;;;;7.63;2.13;;;;;;;28.67;nan;-24609.63;5078985;28;20321;-65
2022/08/01 09:15:49;;;;;;;2.33;1.80;;;;;;;28.78;nan;-24612.63;5074659;28;20213;-64
2022/08/01 09:18:39;;;;;;;1.95;1.67;;;;;;;28.65;nan;-24609.22;5074489;28;20165;-64
2022/08/01 09:21:16;;;;;;;2.20;1.67;;;;;;;28.97;nan;-24617.81;5074572;28;20162;-65
2022/08/01 09:23:54;;;;;;;2.13;1.75;;;;;;;28.68;nan;-24609.91;5074565;28;20181;-65
2022/08/01 09:26:31;;;;;;;2.53;1.70;;;;;;;28.59;nan;-24607.56;5074413;28;20166;-64
2022/08/01 09:28:59;;;;;;;2.30;1.85;;;;;;;28.80;nan;-24613.31;5073442;28;20572;-63
2022/08/01 09:31:26;;;;;;;5.15;1.80;;;;;;;28.87;nan;-24615.22;5079071;28;20235;-65
2022/08/01 09:33:53;;;;;;;2.35;1.88;;;;;;;29.16;nan;-24623.03;5072594;28;20181;-65
2022/08/01 09:36:21;;;;;;;5.00;2.38;;;;;;;28.85;nan;-24614.69;5074101;28;20224;-64
2022/08/01 09:38:48;;;;;;;3.17;2.28;;;;;;;29.19;nan;-24623.84;5073966;28;20211;-66
2022/08/01 09:41:13;;;;;;;2.28;2.00;;;;;;;29.37;nan;-24628.63;5073774;28;20621;-64
2022/08/01 09:43:39;;;;;;;2.83;1.70;;;;;;;29.26;nan;-24625.75;5073463;28;20252;-63
2022/08/01 09:46:10;;;;;;;4.65;1.70;;;;;;;28.94;nan;-24617.00;5073438;28;20170;-63
2022/08/01 09:48:36;;;;;;;6.68;2.00;;;;;;;29.14;nan;-24622.47;5074058;28;20235;-65
2022/08/01 09:51:02;;;;;;;2.35;1.70;;;;;;;29.16;nan;-24623.03;5073932;28;20173;-64
2022/08/01 09:53:40;;;;;;;2.13;1.83;;;;;;;29.38;nan;-24628.91;5073723;28;20173;-65
2022/08/01 09:56:10;;;;;;;2.22;1.75;;;;;;;29.34;nan;-24627.81;5075834;28;20181;-63
2022/08/01 09:58:53;;;;;;;2.20;1.80;;;;;;;29.36;nan;-24628.34;5073754;28;20180;-62
2022/08/01 10:01:20;;;;;;;2.08;1.88;;;;;;;29.12;nan;-24621.94;5073581;28;20189;-64
2022/08/01 10:03:46;;;;;;;2.00;1.80;;;;;;;29.44;nan;-24630.53;5076184;28;20185;-62
2022/08/01 10:06:20;;;;;;;2.47;1.95;;;;;;;29.47;nan;-24631.34;5073359;28;20181;-62
2022/08/01 10:08:47;;;;;;;2.33;2.13;;;;;;;28.55;nan;-24606.63;5073342;28;20180;-64
2022/08/01 10:11:13;;;;;;;1.80;1.45;;;;;;;29.48;nan;-24631.63;5073004;28;20651;-64
2022/08/01 10:13:39;;;;;;;1.88;1.63;;;;;;;26.56;nan;-24552.63;5075508;28;20205;-63
2022/08/01 10:16:06;;;;;;;1.92;1.67;;;;;;;29.64;nan;-24636.00;5078556;28;20178;-64
2022/08/01 10:18:34;;;;;;;3.10;1.80;;;;;;;29.96;nan;-24644.47;5073534;28;20177;-65
2022/08/01 10:21:04;;;;;;;2.58;1.90;;;;;;;29.62;nan;-24635.44;5073137;28;20200;-64
2022/08/01 10:23:36;;;;;;;2.00;1.70;;;;;;;29.84;nan;-24641.31;5073229;28;20177;-65
2022/08/01 10:26:04;;;;;;;2.10;1.80;;;;;;;30.08;nan;-24647.72;5073422;28;20625;-63
2022/08/01 10:28:31;;;;;;;2.53;2.00;;;;;;;30.18;nan;-24650.44;5073084;28;20178;-64
2022/08/01 10:30:58;;;;;;;4.35;2.35;;;;;;;30.11;nan;-24648.53;5072978;28;20169;-63
2022/08/01 10:33:24;;;;;;;2.35;1.73;;;;;;;29.98;nan;-24645.13;5072748;28;20178;-63
2022/08/01 10:35:50;;;;;;;1.92;1.65;;;;;;;30.02;nan;-24646.22;5072792;28;20636;-65
2022/08/01 10:38:17;;;;;;;3.05;2.08;;;;;;;30.01;nan;-24645.81;5072614;28;20220;-65
2022/08/01 10:40:43;;;;;;;4.47;1.90;;;;;;;30.08;nan;-24647.88;5072995;28;20161;-65
2022/08/01 10:43:14;;;;;;;2.65;2.10;;;;;;;30.18;nan;-24650.59;5072692;28;20197;-65
2022/08/01 10:45:42;;;;;;;2.25;1.90;;;;;;;30.29;nan;-24653.44;5072564;28;20173;-64
2022/08/01 10:48:30;;;;;;;2.42;1.85;;;;;;;30.21;nan;-24651.28;5072365;28;20226;-64
2022/08/01 10:50:59;;;;;;;2.28;2.00;;;;;;;29.63;nan;-24635.72;5072753;28;20265;-64
2022/08/01 10:53:26;;;;;;;3.63;1.92;;;;;;;29.93;nan;-24643.78;5072178;28;20174;-63
2022/08/01 10:56:00;;;;;;;5.72;2.20;;;;;;;30.19;nan;-24650.88;5072566;28;20637;-63
2022/08/01 10:58:37;;;;;;;3.40;1.83;;;;;;;30.41;nan;-24656.72;5071957;28;20165;-64
2022/08/01 11:01:32;;;;;;;3.78;2.10;;;;;;;30.07;nan;-24647.59;5072657;28;20161;-63
2022/08/01 11:04:00;;;;;;;2.75;1.95;;;;;;;30.43;nan;-24657.25;5072737;28;20166;-64
2022/08/01 11:06:40;;;;;;;2.85;2.30;;;;;;;30.11;nan;-24648.69;5072513;28;20169;-65
2022/08/01 11:09:16;;;;;;;2.50;1.80;;;;;;;30.24;nan;-24652.22;5071946;28;20513;-63
2022/08/01 11:11:56;;;;;;;3.55;1.90;;;;;;;30.72;nan;-24665.03;5072354;28;20169;-64
2022/08/01 11:14:21;;;;;;;2.13;1.73;;;;;;;30.50;nan;-24659.19;5071883;28;20335;-65
2022/08/01 11:16:47;;;;;;;4.65;1.92;;;;;;;30.17;nan;-24650.31;5072216;28;20157;-64
2022/08/01 11:19:13;;;;;;;23.48;4.47;;;;;;;30.43;nan;-24657.13;5072234;28;20248;-64
2022/08/01 11:22:05;;;;;;;4.00;2.28;;;;;;;30.57;nan;-24661.09;5070862;28;20552;-65
2022/08/01 11:24:48;;;;;;;2.40;2.00;;;;;;;30.60;nan;-24661.91;5070095;28;20507;-64
2022/08/01 11:27:31;;;;;;;3.28;2.15;;;;;;;30.84;nan;-24668.16;5071757;28;20199;-65
2022/08/01 11:30:08;;;;;;;2.80;1.90;;;;;;;31.03;nan;-24673.47;5071500;28;20165;-63
2022/08/01 11:32:45;;;;;;;2.85;2.00;;;;;;;30.43;nan;-24657.25;5071713;28;20173;-62
2022/08/01 11:35:10;;;;;;;2.13;1.75;;;;;;;30.54;nan;-24660.13;5072159;28;20259;-63
2022/08/01 11:37:35;;;;;;;2.00;1.80;;;;;;;30.63;nan;-24662.59;5071752;28;20165;-63
2022/08/01 11:40:22;;;;;;;2.97;2.00;;;;;;;31.04;nan;-24673.59;5071602;28;20507;-63
2022/08/01 11:42:49;;;;;;;4.03;1.73;;;;;;;31.00;nan;-24672.53;5070883;28;20189;-64
2022/08/01 11:45:15;;;;;;;3.45;2.05;;;;;;;31.03;nan;-24673.47;5070895;28;20222;-62
2022/08/01 11:47:51;;;;;;;2.85;1.90;;;;;;;31.12;nan;-24675.78;5070577;28;20203;-64
2022/08/01 11:50:46;;;;;;;2.22;1.92;;;;;;;31.58;nan;-24688.03;5071642;28;20173;-64
2022/08/01 11:53:14;;;;;;;2.70;1.95;;;;;;;30.84;nan;-24668.16;5066620;28;20189;-64